Time;durP1;ratioP1;P1;durP2;ratioP2;P2;SDS_P1;SDS_P2;PMS_P1;PMS_P2;Temp;Humidity;BMP_temperature;BMP_pressure;BME280_temperature;BME280_humidity;BME280_pressure;Samples;Min_cycle;Max_cycle;Signal;HPM_P1;HPM_P2
2021/05/25 07:37:08;;;;;;;10.93;2.25;;;;;;;15.76;52.07;99188.00;5894715;22;9620307;-83
2021/05/25 07:40:03;;;;;;;15.48;2.10;;;;;;;15.11;54.93;99181.47;6291890;22;20038;-84
2021/05/25 07:42:50;;;;;;;12.52;2.65;;;;;;;14.68;55.53;99173.28;6171492;22;20107;-82
2021/05/25 07:45:17;;;;;;;18.15;1.80;;;;;;;14.82;55.36;99187.69;6250012;22;20019;-83
2021/05/25 07:47:57;;;;;;;16.38;2.30;;;;;;;14.37;57.57;99183.91;6268606;22;20142;-81
2021/05/25 08:15:03;;;;;;;6.68;1.67;;;;;;;14.30;57.29;99209.47;5028838;27;1466949;-80
2021/05/25 08:20:16;;;;;;;16.30;1.85;;;;;;;13.79;59.33;99225.00;5052587;28;20083;-77
2021/05/25 08:23:08;;;;;;;11.88;1.98;;;;;;;14.25;58.56;99232.41;5057357;28;20045;-78
2021/05/25 08:25:35;;;;;;;11.10;2.63;;;;;;;14.30;58.45;99237.50;5063408;28;20118;-80
2021/05/25 08:28:05;;;;;;;12.15;2.42;;;;;;;13.84;59.92;99238.84;5054213;28;20093;-80
2021/05/25 08:32:36;;;;;;;10.52;2.00;;;;;;;13.37;61.83;99247.13;5036383;27;1395705;-81
2021/05/25 08:35:05;;;;;;;11.88;1.95;;;;;;;13.61;60.80;99249.13;5038734;28;20084;-78
2021/05/25 08:37:33;;;;;;;12.48;2.20;;;;;;;13.70;60.33;99251.50;5061623;28;20072;-82
2021/05/25 08:40:08;;;;;;;9.52;1.90;;;;;;;13.56;61.58;99258.88;5053032;28;20503;-80
2021/05/25 08:42:46;;;;;;;15.55;2.38;;;;;;;13.81;60.21;99262.53;5054767;28;20040;-82
2021/05/25 08:46:12;;;;;;;11.45;1.92;;;;;;;13.97;59.34;99261.22;5014677;28;20045;-82
2021/05/25 08:49:11;;;;;;;14.98;2.70;;;;;;;14.11;58.87;99252.94;4952982;28;20053;-82
2021/05/25 08:52:15;;;;;;;9.20;1.95;;;;;;;14.21;58.76;99259.66;4942065;28;20416;-85
2021/05/25 08:55:31;;;;;;;10.82;1.77;;;;;;;13.83;59.41;99252.88;5021956;28;20060;-85
2021/05/25 08:58:42;;;;;;;;;;;;;;;;;;;;;
2021/05/25 09:01:12;;;;;;;10.77;2.45;;;;;;;14.03;58.68;99260.19;4984649;28;20071;-83
2021/05/25 09:03:59;;;;;;;8.95;1.95;;;;;;;14.03;58.84;99265.44;5044065;28;20052;-83
2021/05/25 09:07:01;;;;;;;10.50;2.95;;;;;;;14.50;57.25;99265.88;5026430;28;20072;-87
2021/05/25 09:10:05;;;;;;;9.27;1.92;;;;;;;14.47;57.26;99264.19;5024114;28;20119;-85
2021/05/25 09:15:46;;;;;;;8.30;2.00;;;;;;;15.21;55.55;99276.75;5066029;27;20451;-81
2021/05/25 09:32:58;;;;;;;11.25;2.25;;;;;;;14.18;58.21;99280.78;4648361;30;20066;-81
2021/05/25 10:25:15;;;;;;;14.98;2.60;;;;;;;14.36;57.67;99309.19;5046431;28;20361;-82
2021/05/25 10:33:17;;;;;;;15.60;3.03;;;;;;;14.64;56.32;99303.13;5054128;27;20467;-81
2021/05/25 10:39:52;;;;;;;13.45;2.55;;;;;;;14.78;55.62;99322.81;4970011;28;20662;-82
2021/05/25 10:42:25;;;;;;;13.77;2.92;;;;;;;15.22;54.64;99323.22;4982058;28;20066;-80
2021/05/25 10:45:44;;;;;;;11.75;2.35;;;;;;;14.76;55.84;99322.03;4917633;28;20043;-81
2021/05/25 10:53:09;;;;;;;18.92;2.28;;;;;;;15.93;52.54;99339.25;4937557;28;20055;-81
2021/05/25 11:03:32;;;;;;;17.50;2.13;;;;;;;14.88;55.01;99346.22;4913412;28;20040;-82
2021/05/25 11:06:51;;;;;;;10.93;2.30;;;;;;;14.56;54.91;99345.41;4928780;28;20121;-80
2021/05/25 11:10:32;;;;;;;16.30;2.40;;;;;;;14.35;54.83;99341.59;4855759;28;20053;-85
2021/05/25 11:18:41;;;;;;;13.57;2.70;;;;;;;14.25;56.61;99345.38;4758315;29;20051;-82
2021/05/25 11:21:16;;;;;;;18.60;2.53;;;;;;;13.74;58.62;99350.25;4662521;30;20420;-81
2021/05/25 11:25:03;;;;;;;;;;;;;;;;;;;;;
2021/05/25 11:38:06;;;;;;;18.05;3.40;;;;;;;14.05;58.45;99350.34;4867211;29;20062;-83
2021/05/25 11:40:50;;;;;;;18.17;2.75;;;;;;;14.70;56.37;99345.88;4784160;29;20065;-84
2021/05/25 13:45:29;;;;;;;45.88;4.93;;;;;;;16.57;49.49;99372.09;4997209;27;1400182;-76
2021/05/25 13:47:58;;;;;;;18.73;2.78;;;;;;;16.16;50.51;99362.19;5032505;28;20075;-84
2021/05/25 13:50:27;;;;;;;10.88;2.65;;;;;;;15.98;50.48;99368.94;5037281;27;20053;-82
2021/05/25 13:52:55;;;;;;;15.43;2.30;;;;;;;15.69;51.55;99369.94;5014078;28;20137;-81
2021/05/25 13:55:26;;;;;;;8.93;1.98;;;;;;;16.12;51.47;99371.97;5033227;28;20046;-82
2021/05/25 13:57:54;;;;;;;16.88;2.85;;;;;;;15.56;50.86;99366.00;5003409;28;20065;-84
2021/05/25 14:00:37;;;;;;;13.43;2.28;;;;;;;15.85;50.62;99380.81;4995630;28;20052;-89
2021/05/25 14:07:12;;;;;;;12.20;2.08;;;;;;;16.33;50.50;99378.28;5008969;28;20427;-85
2021/05/25 14:09:40;;;;;;;9.18;2.17;;;;;;;15.89;50.99;99371.03;4989179;28;20419;-84
2021/05/25 14:12:07;;;;;;;12.50;2.00;;;;;;;16.05;50.57;99373.13;5000697;28;20490;-83
2021/05/25 14:14:37;;;;;;;7.60;1.58;;;;;;;15.86;51.83;99374.66;4982917;28;20058;-86
2021/05/25 14:17:05;;;;;;;17.95;2.67;;;;;;;15.91;52.09;99392.94;5000360;28;20560;-83
2021/05/25 14:19:32;;;;;;;8.80;2.25;;;;;;;15.86;52.15;99386.97;4962157;28;20062;-81
2021/05/25 14:22:04;;;;;;;6.70;1.27;;;;;;;16.02;51.59;99369.69;4964148;28;20064;-81
2021/05/25 14:24:45;;;;;;;14.45;1.92;;;;;;;16.02;52.44;99374.97;4937502;28;20505;-86
2021/05/25 14:28:23;;;;;;;6.18;1.38;;;;;;;15.24;53.22;99360.88;4963453;28;20140;-82
2021/05/25 14:30:50;;;;;;;6.50;1.80;;;;;;;15.32;53.83;99350.09;4902476;28;20535;-80
2021/05/25 14:50:26;;;;;;;10.55;1.92;;;;;;;15.64;52.30;99320.97;6116564;22;1410656;-84
2021/05/25 14:53:23;;;;;;;12.45;2.13;;;;;;;15.38;51.49;99319.19;6188901;23;20029;-82
2021/05/25 14:56:14;;;;;;;12.32;2.00;;;;;;;15.63;51.02;99312.19;6187220;23;20053;-81
2021/05/25 14:58:41;;;;;;;10.23;1.92;;;;;;;15.44;51.49;99326.88;6193956;23;20518;-81
2021/05/25 15:01:11;;;;;;;7.60;1.90;;;;;;;15.53;51.80;99302.06;6187579;23;20025;-80
2021/05/25 15:03:48;;;;;;;10.88;1.67;;;;;;;15.62;52.54;99322.81;6161258;23;20092;-82
2021/05/25 15:06:27;;;;;;;10.35;1.88;;;;;;;15.05;52.12;99315.00;6183380;23;20556;-81
2021/05/25 15:08:58;;;;;;;11.98;1.83;;;;;;;14.93;52.68;99297.81;6136314;23;20438;-80
2021/05/25 15:11:28;;;;;;;12.50;1.45;;;;;;;15.05;52.15;99301.84;6136062;23;20090;-83
2021/05/25 15:13:56;;;;;;;8.02;1.60;;;;;;;15.31;52.76;99304.47;6175937;23;20100;-85
2021/05/25 15:16:23;;;;;;;8.40;1.50;;;;;;;15.31;51.93;99288.69;6180992;23;20017;-81
2021/05/25 15:18:54;;;;;;;9.95;1.90;;;;;;;15.54;50.69;99293.25;6143052;23;20092;-83
2021/05/25 15:21:22;;;;;;;8.98;1.52;;;;;;;15.25;51.55;99291.56;6161177;23;20028;-83
2021/05/25 15:24:14;;;;;;;5.93;1.33;;;;;;;16.08;50.86;99306.25;6187841;23;20475;-83
2021/05/25 15:27:31;;;;;;;9.07;1.45;;;;;;;15.08;51.60;99297.34;6131221;23;20080;-81
2021/05/25 15:31:17;;;;;;;7.47;1.40;;;;;;;16.01;50.47;99296.88;6012296;23;20029;-83
2021/05/25 15:34:31;;;;;;;;;;;;;;;;;;;;;
2021/05/25 15:37:38;;;;;;;8.23;1.50;;;;;;;15.63;50.21;99301.66;6154479;23;20025;-78
2021/05/25 15:40:08;;;;;;;17.42;1.92;;;;;;;15.80;49.49;99303.72;6160038;22;20368;-80
2021/05/25 15:46:52;;;;;;;9.10;1.50;;;;;;;15.90;48.55;99306.91;6165485;23;20088;-76
2021/05/25 15:49:19;;;;;;;11.40;1.70;;;;;;;15.78;49.65;99309.97;6153651;23;24196;-79
2021/05/25 15:51:59;;;;;;;;;;;;;;;;;;;;;
2021/05/25 15:54:33;;;;;;;11.98;1.75;;;;;;;15.63;50.93;99292.94;6178065;23;20021;-80
2021/05/25 16:02:11;;;;;;;6.95;1.10;;;;;;;16.02;50.02;99298.56;5907975;23;20028;-84
2021/05/25 16:04:42;;;;;;;13.60;2.15;;;;;;;15.20;49.33;99283.78;5911194;23;20137;-82
2021/05/25 16:20:49;;;;;;;6.20;1.20;;;;;;;15.50;48.73;99302.09;5904306;24;20079;-81
2021/05/25 16:24:04;;;;;;;7.68;1.20;;;;;;;15.44;50.02;99294.44;5817737;24;20056;-82
2021/05/25 16:54:09;;;;;;;5.10;1.40;;;;;;;14.96;51.21;99315.28;5436612;23;15960586;-79
2021/05/25 17:01:31;;;;;;;9.95;1.55;;;;;;;15.14;50.82;99312.94;6120122;23;20039;-78
2021/05/25 17:17:27;;;;;;;11.85;2.20;;;;;;;15.25;50.55;99325.75;6083374;23;20084;-78
2021/05/25 17:19:54;;;;;;;9.93;1.45;;;;;;;15.05;51.07;99334.28;6206343;23;20366;-78
2021/05/25 17:22:22;;;;;;;11.25;1.75;;;;;;;15.73;49.92;99333.81;6151807;23;20030;-80
2021/05/25 17:25:12;;;;;;;8.82;1.63;;;;;;;15.94;48.58;99335.72;6116080;23;20042;-79
2021/05/25 17:27:43;;;;;;;7.35;1.52;;;;;;;16.23;48.24;99325.94;6148290;23;20036;-76
2021/05/25 17:30:12;;;;;;;5.07;1.23;;;;;;;16.25;47.12;99339.91;6124508;23;20088;-79
2021/05/25 17:32:57;;;;;;;15.70;1.88;;;;;;;16.06;47.78;99335.31;6129262;23;20052;-79
2021/05/25 17:35:24;;;;;;;11.77;1.73;;;;;;;15.71;48.67;99327.75;6094541;23;20037;-79
2021/05/25 17:38:22;;;;;;;6.95;1.45;;;;;;;16.22;48.15;99347.91;6116753;23;20058;-81
2021/05/25 17:41:20;;;;;;;3.42;1.02;;;;;;;16.24;48.13;99354.88;5977160;23;20028;-81
2021/05/25 17:44:05;;;;;;;12.98;2.28;;;;;;;15.81;48.52;99342.34;6094160;23;20037;-82
2021/05/25 17:46:33;;;;;;;12.63;1.65;;;;;;;15.95;49.42;99348.00;6119694;23;20055;-78
2021/05/25 17:49:03;;;;;;;6.50;1.40;;;;;;;16.06;49.56;99345.84;6104206;23;20030;-78
2021/05/25 17:52:08;;;;;;;10.98;2.20;;;;;;;15.63;49.58;99349.06;6094674;23;20050;-80
2021/05/25 17:54:53;;;;;;;11.52;1.52;;;;;;;15.31;50.35;99340.47;6147420;23;20029;-77
2021/05/25 17:57:20;;;;;;;6.78;1.75;;;;;;;15.31;50.99;99336.06;6110498;23;20037;-76
2021/05/25 17:59:47;;;;;;;7.70;1.45;;;;;;;15.17;50.40;99351.44;6134945;23;20060;-79
2021/05/25 18:02:14;;;;;;;5.45;1.25;;;;;;;15.49;50.20;99343.38;6117659;23;20033;-76
2021/05/25 18:04:45;;;;;;;10.80;1.30;;;;;;;14.91;51.99;99343.50;6124538;23;20030;-78
2021/05/25 18:07:28;;;;;;;9.38;1.80;;;;;;;15.25;50.13;99347.66;6107463;23;20026;-79
2021/05/25 18:09:59;;;;;;;14.07;1.65;;;;;;;15.58;50.86;99352.78;6158190;23;20034;-76
2021/05/25 18:12:27;;;;;;;10.18;1.83;;;;;;;15.77;50.27;99350.41;6081946;23;20056;-75
2021/05/25 18:14:57;;;;;;;7.65;1.23;;;;;;;16.17;48.88;99350.72;6129947;23;20026;-77
2021/05/25 18:17:40;;;;;;;6.40;1.73;;;;;;;15.79;49.72;99349.41;6057150;23;20268;-82
2021/05/25 18:20:36;;;;;;;6.32;1.42;;;;;;;15.24;50.74;99343.31;6046880;23;20072;-79
2021/05/25 18:51:26;;;;;;;;;;;;;;;;;;;;;
2021/05/25 19:13:16;;;;;;;8.52;2.10;;;;;;;14.72;54.50;99370.31;6038190;22;4020368;-79
2021/05/25 19:15:59;;;;;;;6.45;1.63;;;;;;;14.54;54.83;99372.63;6173840;23;20075;-78
2021/05/25 19:18:29;;;;;;;11.85;2.17;;;;;;;14.45;55.63;99376.38;6184819;23;20036;-77
2021/05/25 19:29:25;;;;;;;43.35;14.68;;;;;;;14.22;57.50;99400.66;6043256;23;20036;-80
2021/05/25 19:32:53;;;;;;;;;;;;;;;;;;;;;
2021/05/25 19:36:08;;;;;;;1.65;0.63;;;;;;;14.11;56.05;99413.19;5965955;23;20198;-80
2021/05/25 19:39:42;;;;;;;3.60;0.70;;;;;;;13.81;57.82;99419.25;6013153;23;20027;-79
2021/05/25 19:42:32;;;;;;;6.57;3.05;;;;;;;13.39;61.06;99421.97;5997283;23;20045;-77
2021/05/25 19:45:32;;;;;;;27.38;8.93;;;;;;;13.31;62.84;99415.19;5953850;23;20051;-77
2021/05/25 19:49:29;;;;;;;53.53;18.45;;;;;;;13.25;64.03;99413.56;5986762;23;20030;-81
2021/05/25 19:51:56;;;;;;;15.25;4.45;;;;;;;12.92;65.66;99411.66;6150793;23;20029;-77
2021/05/25 19:54:23;;;;;;;4.22;1.17;;;;;;;12.84;65.44;99410.97;6140960;23;20025;-79
2021/05/25 19:56:50;;;;;;;2.72;0.70;;;;;;;12.76;65.79;99403.25;6134325;23;20520;-77
2021/05/25 19:59:20;;;;;;;2.78;0.65;;;;;;;12.91;65.59;99408.16;6126207;23;20026;-77
2021/05/25 20:01:47;;;;;;;1.55;0.40;;;;;;;12.70;66.37;99408.63;6126426;23;20125;-81
2021/05/25 20:06:21;;;;;;;1.42;0.30;;;;;;;13.07;64.68;99409.56;5065071;27;20403;-77
2021/05/25 20:08:49;;;;;;;1.40;0.57;;;;;;;12.79;65.07;99416.31;5056583;28;20512;-78
2021/05/25 20:11:16;;;;;;;0.93;0.40;;;;;;;12.71;65.98;99422.59;5035552;28;20037;-77
2021/05/25 20:13:44;;;;;;;0.70;0.38;;;;;;;12.81;65.28;99424.97;5024585;28;20071;-78
2021/05/25 20:16:11;;;;;;;0.95;0.38;;;;;;;12.56;65.63;99418.53;5035300;28;20457;-78
2021/05/25 21:19:18;;;;;;;4.32;1.17;;;;;;;12.09;66.76;99438.59;5073978;27;20366;-76
2021/05/25 21:21:46;;;;;;;7.68;1.17;;;;;;;11.86;68.40;99437.25;5007690;28;20132;-76
2021/05/25 21:24:21;;;;;;;3.33;1.00;;;;;;;11.87;68.35;99439.88;4993167;28;20045;-76
2021/05/25 21:26:49;;;;;;;7.97;1.63;;;;;;;11.90;68.23;99436.31;5038217;28;20303;-76
2021/05/25 21:29:16;;;;;;;4.60;1.27;;;;;;;11.67;68.74;99437.53;5033060;28;20061;-77
2021/05/25 21:31:44;;;;;;;6.55;1.38;;;;;;;11.92;68.59;99438.03;5046408;28;20057;-76
2021/05/25 21:34:13;;;;;;;4.78;1.27;;;;;;;12.39;67.32;99437.19;5005150;28;20135;-76
2021/05/25 21:36:41;;;;;;;5.18;1.40;;;;;;;11.96;68.48;99441.47;5022821;28;20053;-76
2021/05/25 21:39:09;;;;;;;12.57;3.25;;;;;;;12.18;67.81;99445.44;5032215;28;20044;-76
2021/05/25 21:41:36;;;;;;;15.15;5.32;;;;;;;12.44;66.98;99444.94;5043465;28;20102;-76
2021/05/25 21:44:04;;;;;;;25.17;8.20;;;;;;;12.17;67.94;99448.94;5055769;28;20052;-76
2021/05/25 21:46:34;;;;;;;26.45;8.65;;;;;;;12.24;68.20;99448.81;5060360;28;20048;-76
2021/05/25 21:49:02;;;;;;;43.10;13.65;;;;;;;12.75;66.18;99448.72;5046140;28;20045;-76
2021/05/25 21:51:30;;;;;;;52.75;19.38;;;;;;;12.48;66.83;99449.22;5052844;28;20482;-76
2021/05/25 21:53:57;;;;;;;40.67;12.30;;;;;;;12.62;66.39;99455.06;5017968;28;20063;-76
2021/05/25 21:56:27;;;;;;;51.97;17.98;;;;;;;12.62;65.78;99450.69;5023385;28;20076;-76
2021/05/25 21:58:55;;;;;;;46.50;15.32;;;;;;;12.52;66.89;99453.53;5007773;28;20060;-78
2021/05/25 22:01:23;;;;;;;38.25;13.75;;;;;;;12.77;66.15;99456.53;5018355;28;20049;-77
2021/05/25 22:03:50;;;;;;;14.50;5.22;;;;;;;12.40;67.13;99459.00;4984174;28;20383;-77
2021/05/25 22:06:18;;;;;;;5.13;2.25;;;;;;;12.68;66.08;99457.59;4985677;28;20090;-78
2021/05/25 22:08:45;;;;;;;7.03;2.67;;;;;;;12.49;67.03;99458.84;4984234;28;20109;-78
2021/05/25 22:11:12;;;;;;;5.80;2.33;;;;;;;12.82;65.70;99459.94;4970911;28;20596;-77
2021/05/25 22:13:39;;;;;;;9.68;4.07;;;;;;;12.58;66.82;99461.28;4979584;28;20151;-77
2021/05/25 22:16:07;;;;;;;7.32;2.17;;;;;;;12.86;66.12;99462.44;4991890;28;20043;-77
2021/05/25 22:18:37;;;;;;;5.35;1.90;;;;;;;12.60;67.19;99459.50;4962938;28;20481;-78
2021/05/25 22:21:04;;;;;;;14.52;6.18;;;;;;;13.20;65.27;99473.13;4978256;28;20061;-78
2021/05/25 22:23:32;;;;;;;5.70;2.90;;;;;;;12.55;67.60;99467.44;4981881;28;20133;-77
2021/05/25 22:25:59;;;;;;;4.63;2.38;;;;;;;13.09;65.98;99467.25;4995785;28;20061;-77
2021/05/25 22:28:28;;;;;;;4.07;2.25;;;;;;;13.14;65.62;99467.19;4968081;28;20054;-78
2021/05/25 22:30:56;;;;;;;3.60;2.13;;;;;;;12.74;66.82;99464.47;4965054;28;20461;-78
2021/05/25 22:33:23;;;;;;;2.70;2.22;;;;;;;12.95;66.54;99467.50;4967726;28;20054;-79
2021/05/25 22:35:50;;;;;;;4.22;2.53;;;;;;;13.11;66.04;99473.34;4986982;28;20065;-76
2021/05/25 22:38:20;;;;;;;4.00;2.53;;;;;;;12.98;66.83;99471.84;4964413;28;20112;-77
2021/05/25 22:40:50;;;;;;;;;;;;;;;12.92;66.75;99466.72;4979445;28;20057;-77
2021/05/25 22:43:17;;;;;;;4.18;2.92;;;;;;;12.61;68.26;99469.09;5008703;28;19929;-78
2021/05/25 22:45:45;;;;;;;5.35;2.78;;;;;;;12.67;67.87;99477.69;5000583;28;20374;-77
2021/05/25 22:48:12;;;;;;;4.68;2.67;;;;;;;12.98;67.01;99475.31;4994557;28;20045;-77
2021/05/25 22:50:39;;;;;;;4.18;3.22;;;;;;;13.06;67.42;99478.66;4978770;28;20152;-79
2021/05/25 22:53:07;;;;;;;5.57;3.40;;;;;;;12.39;69.66;99473.00;4979257;28;20061;-77
2021/05/25 22:55:34;;;;;;;6.65;3.90;;;;;;;12.82;68.01;99470.41;5010334;28;20045;-76
2021/05/25 22:58:01;;;;;;;5.00;4.35;;;;;;;12.74;68.58;99467.09;5003335;28;20425;-79
2021/05/25 23:00:28;;;;;;;5.85;4.55;;;;;;;12.67;68.43;99467.19;4989097;28;20460;-77
2021/05/25 23:02:56;;;;;;;6.53;4.85;;;;;;;13.07;67.48;99467.25;4981070;28;20062;-78
2021/05/25 23:05:25;;;;;;;5.03;4.53;;;;;;;12.72;68.57;99468.88;4986128;28;20495;-78
2021/05/25 23:07:52;;;;;;;7.50;5.25;;;;;;;12.54;69.36;99470.09;4974923;28;20501;-79
2021/05/25 23:10:19;;;;;;;5.90;4.70;;;;;;;12.72;68.48;99464.50;4977312;28;20065;-79
2021/05/25 23:12:48;;;;;;;6.70;5.10;;;;;;;12.62;69.04;99466.41;4990313;28;20152;-77
2021/05/25 23:15:15;;;;;;;7.28;4.75;;;;;;;12.61;68.85;99462.06;4985436;28;20091;-78
2021/05/25 23:17:44;;;;;;;6.07;5.13;;;;;;;12.66;68.90;99465.47;4986135;28;20056;-78
2021/05/25 23:20:13;;;;;;;7.05;5.25;;;;;;;12.88;67.70;99459.81;4998225;28;20073;-78
2021/05/25 23:22:42;;;;;;;6.38;5.50;;;;;;;12.81;67.90;99468.69;4991445;28;20441;-78
2021/05/25 23:25:17;;;;;;;9.82;5.32;;;;;;;12.37;68.93;99457.31;4980648;28;20157;-77
2021/05/25 23:27:46;;;;;;;6.65;5.10;;;;;;;12.61;68.33;99469.94;4967533;28;20109;-77
2021/05/25 23:30:14;;;;;;;7.22;5.28;;;;;;;12.31;69.07;99464.41;5012114;28;20060;-77
2021/05/25 23:32:41;;;;;;;6.80;5.53;;;;;;;12.36;69.32;99458.22;5023808;28;20095;-77
2021/05/25 23:35:13;;;;;;;8.70;5.50;;;;;;;12.22;69.86;99457.59;5005731;28;20041;-76
2021/05/25 23:37:40;;;;;;;8.30;5.93;;;;;;;12.31;69.44;99459.19;5004706;28;20041;-77
2021/05/25 23:40:08;;;;;;;13.13;5.93;;;;;;;12.39;68.86;99454.66;4988052;28;20068;-77
2021/05/25 23:42:36;;;;;;;8.32;6.13;;;;;;;12.02;69.27;99455.31;4998818;28;21091;-77
2021/05/25 23:45:05;;;;;;;6.93;5.82;;;;;;;11.94;69.90;99456.34;4996152;28;20121;-76
2021/05/25 23:47:32;;;;;;;8.75;5.30;;;;;;;11.62;70.92;99459.41;4991799;28;20049;-77
2021/05/25 23:49:59;;;;;;;6.38;5.75;;;;;;;11.38;71.25;99461.53;5005679;28;20084;-76
2021/05/25 23:52:27;;;;;;;9.13;6.20;;;;;;;11.77;70.82;99454.00;4977870;28;20099;-77
2021/05/25 23:54:55;;;;;;;7.03;6.30;;;;;;;11.51;71.14;99459.56;5008333;28;20393;-77
2021/05/25 23:57:22;;;;;;;7.30;5.90;;;;;;;11.56;71.04;99455.13;4988410;28;20067;-77
2021/05/25 23:59:49;;;;;;;7.20;5.90;;;;;;;11.27;72.32;99463.41;5010282;28;20060;-77
